Humidity-temperature Sensor

Selected Measurement Type: Relative Humidity

 
Relative Humidity [%]     6 entries per hour
Showing data from 12/14/2022 (00:00:00 Z) to 12/13/2022 (00:01:00 Z)
Previous Next [ Day | 3-Days | 7-Days ]
First Last
Prev [ Day | 3-Days | 7-Days ] Next
First Last

Start Time:     :
End Time:     :     
Time (in GMT) :00 :50 :40 :30 :20 :10
Previous Next [ Day | 3-Days | 7-Days ]
First Last
Prev [ Day | 3-Days | 7-Days ] Next
First Last


123 => good data
MM => data is determined as missing
-- => data not received/configured
Back to Top Back to Top
12/14/2022 00:00 to 23:10 92.28 92.18 91.95 91.68 91.19 90.80
12/13/2022 23:00 to 22:10 90.43 90.22 90.39 90.24 90.43 91.00
12/13/2022 22:00 to 21:10 91.31 91.64 91.79 91.79 91.81 91.70
12/13/2022 21:00 to 20:10 91.83 92.14 92.34 92.87 93.10 93.20
12/13/2022 20:00 to 19:10 93.10 92.63 92.05 91.60 91.17 90.51
12/13/2022 19:00 to 18:10 89.96 90.00 89.75 89.98 89.98 90.06
12/13/2022 18:00 to 17:10 90.55 90.76 90.78 91.00 91.23 91.29
12/13/2022 17:00 to 16:10 91.48 91.54 91.74 92.11 92.30 92.65
12/13/2022 16:00 to 15:10 92.61 92.55 92.53 92.79 92.90 93.04
12/13/2022 15:00 to 14:10 93.12 93.39 93.55 93.49 93.53 93.70
12/13/2022 14:00 to 13:10 93.66 93.82 94.19 94.09 94.21 94.23
12/13/2022 13:00 to 12:10 94.35 94.54 94.89 95.11 95.28 95.36
12/13/2022 12:00 to 11:10 95.51 95.40 95.53 95.55 95.75 95.83
12/13/2022 11:00 to 10:10 95.63 95.92 95.85 95.73 95.71 95.90
12/13/2022 10:00 to 9:10 96.04 96.16 96.16 96.22 96.43 96.35
12/13/2022 09:00 to 8:10 96.51 96.66 96.43 96.47 96.39 96.33
12/13/2022 08:00 to 7:10 96.29 96.29 96.31 96.27 96.22 96.16
12/13/2022 07:00 to 6:10 96.18 96.24 96.51 96.41 96.68 96.78
12/13/2022 06:00 to 5:10 96.88 97.05 97.03 97.05 96.98 96.96
12/13/2022 05:00 to 4:10 96.98 97.15 96.90 96.70 96.74 96.94
12/13/2022 04:00 to 3:10 96.94 96.90 96.92 97.17 97.21 97.05
12/13/2022 03:00 to 2:10 97.29 97.23 97.40 97.66 97.93 97.97
12/13/2022 02:00 to 1:10 98.09 98.05 98.09 97.93 97.97 97.72
12/13/2022 01:00 to 0:10 97.52 97.19 96.55 96.02 95.57 95.46